sensor_id;sensor_type;location;lat;lon;timestamp;P1;durP1;ratioP1;P2;durP2;ratioP2
1507;SDS011;745;48.586;10.032;2023-03-03T00:03:34;53.53;;;29.97;;
1507;SDS011;745;48.586;10.032;2023-03-03T00:08:04;52.77;;;29.27;;
1507;SDS011;745;48.586;10.032;2023-03-03T00:12:35;50.47;;;29.97;;
1507;SDS011;745;48.586;10.032;2023-03-03T00:17:22;48.57;;;27.30;;
1507;SDS011;745;48.586;10.032;2023-03-03T00:21:55;53.53;;;29.90;;
1507;SDS011;745;48.586;10.032;2023-03-03T00:26:36;49.90;;;28.20;;
1507;SDS011;745;48.586;10.032;2023-03-03T00:40:46;53.00;;;30.17;;
1507;SDS011;745;48.586;10.032;2023-03-03T00:45:21;54.27;;;32.77;;
1507;SDS011;745;48.586;10.032;2023-03-03T00:50:14;51.67;;;29.43;;
1507;SDS011;745;48.586;10.032;2023-03-03T00:54:51;51.93;;;29.20;;
1507;SDS011;745;48.586;10.032;2023-03-03T00:59:21;50.20;;;28.97;;
1507;SDS011;745;48.586;10.032;2023-03-03T01:03:52;57.90;;;32.20;;
1507;SDS011;745;48.586;10.032;2023-03-03T01:08:22;57.90;;;30.10;;
1507;SDS011;745;48.586;10.032;2023-03-03T01:12:54;60.50;;;33.60;;
1507;SDS011;745;48.586;10.032;2023-03-03T01:17:24;51.93;;;31.83;;
1507;SDS011;745;48.586;10.032;2023-03-03T01:21:55;55.10;;;29.73;;
1507;SDS011;745;48.586;10.032;2023-03-03T01:26:25;42.40;;;26.70;;
1507;SDS011;745;48.586;10.032;2023-03-03T01:30:59;51.07;;;28.83;;
1507;SDS011;745;48.586;10.032;2023-03-03T01:35:31;56.83;;;32.67;;
1507;SDS011;745;48.586;10.032;2023-03-03T01:40:03;51.03;;;31.40;;
1507;SDS011;745;48.586;10.032;2023-03-03T01:44:34;51.80;;;28.93;;
1507;SDS011;745;48.586;10.032;2023-03-03T01:49:06;52.23;;;28.37;;
1507;SDS011;745;48.586;10.032;2023-03-03T01:53:42;55.00;;;30.77;;
1507;SDS011;745;48.586;10.032;2023-03-03T01:58:17;53.70;;;30.73;;
1507;SDS011;745;48.586;10.032;2023-03-03T02:02:50;49.10;;;27.53;;
1507;SDS011;745;48.586;10.032;2023-03-03T02:07:21;54.07;;;29.60;;
1507;SDS011;745;48.586;10.032;2023-03-03T02:11:53;53.87;;;29.90;;
1507;SDS011;745;48.586;10.032;2023-03-03T02:16:28;52.70;;;29.20;;
1507;SDS011;745;48.586;10.032;2023-03-03T02:21:15;56.17;;;30.30;;
1507;SDS011;745;48.586;10.032;2023-03-03T02:25:51;56.60;;;30.20;;
1507;SDS011;745;48.586;10.032;2023-03-03T02:30:26;50.73;;;28.20;;
1507;SDS011;745;48.586;10.032;2023-03-03T02:34:56;52.33;;;29.03;;
1507;SDS011;745;48.586;10.032;2023-03-03T02:39:27;56.30;;;30.60;;
1507;SDS011;745;48.586;10.032;2023-03-03T02:44:17;58.20;;;31.13;;
1507;SDS011;745;48.586;10.032;2023-03-03T02:48:50;50.40;;;29.57;;
1507;SDS011;745;48.586;10.032;2023-03-03T02:53:21;50.50;;;29.70;;
1507;SDS011;745;48.586;10.032;2023-03-03T02:57:51;46.47;;;25.93;;
1507;SDS011;745;48.586;10.032;2023-03-03T03:02:21;41.07;;;25.00;;
1507;SDS011;745;48.586;10.032;2023-03-03T03:06:52;52.57;;;29.90;;
1507;SDS011;745;48.586;10.032;2023-03-03T03:11:23;52.23;;;28.37;;
1507;SDS011;745;48.586;10.032;2023-03-03T03:15:53;52.63;;;28.40;;
1507;SDS011;745;48.586;10.032;2023-03-03T03:20:24;51.13;;;30.10;;
1507;SDS011;745;48.586;10.032;2023-03-03T03:24:54;54.30;;;28.90;;
1507;SDS011;745;48.586;10.032;2023-03-03T03:29:24;59.47;;;31.70;;
1507;SDS011;745;48.586;10.032;2023-03-03T03:33:55;62.07;;;32.97;;
1507;SDS011;745;48.586;10.032;2023-03-03T03:38:26;60.30;;;31.13;;
1507;SDS011;745;48.586;10.032;2023-03-03T03:42:56;59.73;;;30.27;;
1507;SDS011;745;48.586;10.032;2023-03-03T03:47:27;55.47;;;29.97;;
1507;SDS011;745;48.586;10.032;2023-03-03T03:51:57;57.33;;;31.73;;
1507;SDS011;745;48.586;10.032;2023-03-03T03:56:27;59.23;;;35.23;;
1507;SDS011;745;48.586;10.032;2023-03-03T04:01:04;52.43;;;29.27;;
1507;SDS011;745;48.586;10.032;2023-03-03T04:05:36;63.93;;;32.90;;
1507;SDS011;745;48.586;10.032;2023-03-03T04:10:06;54.07;;;31.17;;
1507;SDS011;745;48.586;10.032;2023-03-03T04:14:38;59.57;;;32.47;;
1507;SDS011;745;48.586;10.032;2023-03-03T04:19:08;53.07;;;32.43;;
1507;SDS011;745;48.586;10.032;2023-03-03T04:23:39;56.07;;;31.83;;
1507;SDS011;745;48.586;10.032;2023-03-03T04:28:09;51.83;;;30.37;;
1507;SDS011;745;48.586;10.032;2023-03-03T04:32:40;65.10;;;34.20;;
1507;SDS011;745;48.586;10.032;2023-03-03T04:37:10;61.70;;;32.93;;
1507;SDS011;745;48.586;10.032;2023-03-03T04:41:41;61.40;;;32.47;;
1507;SDS011;745;48.586;10.032;2023-03-03T04:46:11;56.73;;;30.33;;
1507;SDS011;745;48.586;10.032;2023-03-03T04:50:41;60.23;;;34.00;;
1507;SDS011;745;48.586;10.032;2023-03-03T04:55:12;61.27;;;31.77;;
1507;SDS011;745;48.586;10.032;2023-03-03T04:59:43;56.73;;;30.03;;
1507;SDS011;745;48.586;10.032;2023-03-03T05:04:13;53.83;;;31.00;;
1507;SDS011;745;48.586;10.032;2023-03-03T05:08:44;62.87;;;33.70;;
1507;SDS011;745;48.586;10.032;2023-03-03T05:13:15;53.17;;;31.00;;
1507;SDS011;745;48.586;10.032;2023-03-03T05:17:46;65.53;;;34.27;;
1507;SDS011;745;48.586;10.032;2023-03-03T05:22:17;60.13;;;33.20;;
1507;SDS011;745;48.586;10.032;2023-03-03T05:26:47;62.13;;;34.77;;
1507;SDS011;745;48.586;10.032;2023-03-03T05:31:18;69.47;;;36.07;;
1507;SDS011;745;48.586;10.032;2023-03-03T05:35:52;63.17;;;36.83;;
1507;SDS011;745;48.586;10.032;2023-03-03T05:40:23;64.80;;;32.83;;
1507;SDS011;745;48.586;10.032;2023-03-03T05:44:54;63.77;;;33.63;;
1507;SDS011;745;48.586;10.032;2023-03-03T05:49:25;55.87;;;31.40;;
1507;SDS011;745;48.586;10.032;2023-03-03T05:53:55;53.63;;;30.63;;
1507;SDS011;745;48.586;10.032;2023-03-03T05:58:26;65.80;;;33.90;;
1507;SDS011;745;48.586;10.032;2023-03-03T06:02:56;56.87;;;33.40;;
1507;SDS011;745;48.586;10.032;2023-03-03T06:07:27;55.43;;;30.43;;
1507;SDS011;745;48.586;10.032;2023-03-03T06:11:58;67.40;;;36.03;;
1507;SDS011;745;48.586;10.032;2023-03-03T06:16:28;54.00;;;28.90;;
1507;SDS011;745;48.586;10.032;2023-03-03T06:20:59;54.63;;;29.03;;
1507;SDS011;745;48.586;10.032;2023-03-03T06:25:29;66.27;;;34.53;;
1507;SDS011;745;48.586;10.032;2023-03-03T06:30:00;58.47;;;32.23;;
1507;SDS011;745;48.586;10.032;2023-03-03T06:34:31;71.33;;;37.70;;
1507;SDS011;745;48.586;10.032;2023-03-03T06:39:01;59.70;;;33.50;;
1507;SDS011;745;48.586;10.032;2023-03-03T06:43:33;52.13;;;29.87;;
1507;SDS011;745;48.586;10.032;2023-03-03T06:48:05;58.80;;;31.30;;
1507;SDS011;745;48.586;10.032;2023-03-03T06:52:35;63.30;;;34.17;;
1507;SDS011;745;48.586;10.032;2023-03-03T06:57:16;64.07;;;35.07;;
1507;SDS011;745;48.586;10.032;2023-03-03T07:01:51;53.53;;;31.83;;
1507;SDS011;745;48.586;10.032;2023-03-03T07:06:22;64.77;;;31.70;;
1507;SDS011;745;48.586;10.032;2023-03-03T07:10:54;53.10;;;29.07;;
1507;SDS011;745;48.586;10.032;2023-03-03T07:15:29;51.53;;;29.43;;
1507;SDS011;745;48.586;10.032;2023-03-03T07:20:08;52.90;;;30.20;;
1507;SDS011;745;48.586;10.032;2023-03-03T07:24:45;53.10;;;30.03;;
1507;SDS011;745;48.586;10.032;2023-03-03T07:29:27;53.03;;;30.60;;
1507;SDS011;745;48.586;10.032;2023-03-03T07:33:59;51.47;;;30.10;;
1507;SDS011;745;48.586;10.032;2023-03-03T07:38:33;47.30;;;24.77;;
1507;SDS011;745;48.586;10.032;2023-03-03T07:52:43;53.37;;;27.57;;
1507;SDS011;745;48.586;10.032;2023-03-03T07:57:27;51.50;;;28.93;;
1507;SDS011;745;48.586;10.032;2023-03-03T08:02:00;56.53;;;30.97;;
1507;SDS011;745;48.586;10.032;2023-03-03T08:11:05;55.83;;;30.07;;
1507;SDS011;745;48.586;10.032;2023-03-03T08:15:38;49.73;;;29.00;;
1507;SDS011;745;48.586;10.032;2023-03-03T08:20:29;52.23;;;28.47;;
1507;SDS011;745;48.586;10.032;2023-03-03T08:25:18;42.70;;;26.53;;
1507;SDS011;745;48.586;10.032;2023-03-03T08:29:48;50.50;;;29.90;;
1507;SDS011;745;48.586;10.032;2023-03-03T08:34:19;48.47;;;29.77;;
1507;SDS011;745;48.586;10.032;2023-03-03T08:38:49;47.63;;;27.40;;
1507;SDS011;745;48.586;10.032;2023-03-03T08:43:20;44.23;;;27.37;;
1507;SDS011;745;48.586;10.032;2023-03-03T08:47:53;46.50;;;27.80;;
1507;SDS011;745;48.586;10.032;2023-03-03T08:52:24;43.80;;;27.90;;
1507;SDS011;745;48.586;10.032;2023-03-03T08:56:55;44.13;;;28.03;;
1507;SDS011;745;48.586;10.032;2023-03-03T09:01:26;44.17;;;28.67;;
1507;SDS011;745;48.586;10.032;2023-03-03T09:05:56;43.30;;;28.07;;
1507;SDS011;745;48.586;10.032;2023-03-03T09:10:27;50.80;;;30.80;;
1507;SDS011;745;48.586;10.032;2023-03-03T09:15:05;43.43;;;27.50;;
1507;SDS011;745;48.586;10.032;2023-03-03T09:19:41;44.40;;;29.70;;
1507;SDS011;745;48.586;10.032;2023-03-03T09:24:17;50.23;;;30.87;;
1507;SDS011;745;48.586;10.032;2023-03-03T09:28:54;53.97;;;31.93;;
1507;SDS011;745;48.586;10.032;2023-03-03T09:33:26;43.70;;;28.17;;
1507;SDS011;745;48.586;10.032;2023-03-03T09:37:58;40.03;;;27.07;;
1507;SDS011;745;48.586;10.032;2023-03-03T09:42:32;36.40;;;25.50;;
1507;SDS011;745;48.586;10.032;2023-03-03T09:52:08;39.80;;;25.60;;
1507;SDS011;745;48.586;10.032;2023-03-03T09:56:43;43.83;;;30.10;;
1507;SDS011;745;48.586;10.032;2023-03-03T10:06:34;44.70;;;28.00;;
1507;SDS011;745;48.586;10.032;2023-03-03T10:11:22;40.97;;;26.47;;
1507;SDS011;745;48.586;10.032;2023-03-03T10:30:50;37.87;;;25.13;;
1507;SDS011;745;48.586;10.032;2023-03-03T10:40:41;36.97;;;26.60;;
1507;SDS011;745;48.586;10.032;2023-03-03T11:18:45;39.60;;;27.60;;
1507;SDS011;745;48.586;10.032;2023-03-03T11:28:37;44.50;;;28.23;;
1507;SDS011;745;48.586;10.032;2023-03-03T11:33:18;41.67;;;27.00;;
1507;SDS011;745;48.586;10.032;2023-03-03T11:37:56;42.00;;;25.90;;
1507;SDS011;745;48.586;10.032;2023-03-03T11:42:40;31.67;;;23.10;;
1507;SDS011;745;48.586;10.032;2023-03-03T11:47:36;37.80;;;25.30;;
1507;SDS011;745;48.586;10.032;2023-03-03T11:52:15;33.73;;;23.90;;
1507;SDS011;745;48.586;10.032;2023-03-03T11:57:18;33.50;;;23.60;;
1507;SDS011;745;48.586;10.032;2023-03-03T12:01:52;34.20;;;24.30;;
1507;SDS011;745;48.586;10.032;2023-03-03T12:20:43;36.27;;;25.20;;
1507;SDS011;745;48.586;10.032;2023-03-03T12:25:29;32.30;;;23.33;;
1507;SDS011;745;48.586;10.032;2023-03-03T12:30:06;32.20;;;21.57;;
1507;SDS011;745;48.586;10.032;2023-03-03T12:35:15;35.13;;;23.00;;
1507;SDS011;745;48.586;10.032;2023-03-03T12:40:00;32.37;;;22.07;;
1507;SDS011;745;48.586;10.032;2023-03-03T12:49:45;28.53;;;21.23;;
1507;SDS011;745;48.586;10.032;2023-03-03T12:55:20;32.63;;;23.13;;
1507;SDS011;745;48.586;10.032;2023-03-03T13:04:51;42.60;;;25.60;;
1507;SDS011;745;48.586;10.032;2023-03-03T13:19:33;32.80;;;21.70;;
1507;SDS011;745;48.586;10.032;2023-03-03T13:28:58;27.33;;;20.90;;
1507;SDS011;745;48.586;10.032;2023-03-03T13:33:35;29.43;;;20.30;;
1507;SDS011;745;48.586;10.032;2023-03-03T13:38:05;36.30;;;21.33;;
1507;SDS011;745;48.586;10.032;2023-03-03T13:43:22;31.80;;;22.10;;
1507;SDS011;745;48.586;10.032;2023-03-03T13:52:30;31.03;;;20.80;;
1507;SDS011;745;48.586;10.032;2023-03-03T14:02:09;33.87;;;22.57;;
1507;SDS011;745;48.586;10.032;2023-03-03T14:07:02;32.33;;;22.20;;
1507;SDS011;745;48.586;10.032;2023-03-03T14:20:48;28.47;;;20.13;;
1507;SDS011;745;48.586;10.032;2023-03-03T14:25:19;28.53;;;20.07;;
1507;SDS011;745;48.586;10.032;2023-03-03T14:29:50;25.87;;;18.77;;
1507;SDS011;745;48.586;10.032;2023-03-03T14:34:39;23.60;;;18.17;;
1507;SDS011;745;48.586;10.032;2023-03-03T14:48:50;23.03;;;17.60;;
1507;SDS011;745;48.586;10.032;2023-03-03T14:53:29;27.00;;;20.03;;
1507;SDS011;745;48.586;10.032;2023-03-03T14:58:00;30.40;;;18.50;;
1507;SDS011;745;48.586;10.032;2023-03-03T15:02:49;29.97;;;18.70;;
1507;SDS011;745;48.586;10.032;2023-03-03T15:07:34;30.80;;;21.23;;
1507;SDS011;745;48.586;10.032;2023-03-03T15:12:22;28.20;;;20.27;;
1507;SDS011;745;48.586;10.032;2023-03-03T15:16:55;29.90;;;21.90;;
1507;SDS011;745;48.586;10.032;2023-03-03T15:21:30;26.73;;;19.10;;
1507;SDS011;745;48.586;10.032;2023-03-03T15:31:13;30.43;;;21.77;;
1507;SDS011;745;48.586;10.032;2023-03-03T15:41:03;25.23;;;18.73;;
1507;SDS011;745;48.586;10.032;2023-03-03T15:50:54;19.97;;;14.90;;
1507;SDS011;745;48.586;10.032;2023-03-03T16:01:02;20.53;;;15.13;;
1507;SDS011;745;48.586;10.032;2023-03-03T16:29:37;28.10;;;16.47;;
1507;SDS011;745;48.586;10.032;2023-03-03T16:34:28;24.00;;;16.50;;
1507;SDS011;745;48.586;10.032;2023-03-03T16:39:02;22.57;;;16.20;;
1507;SDS011;745;48.586;10.032;2023-03-03T16:48:14;24.10;;;15.67;;
1507;SDS011;745;48.586;10.032;2023-03-03T16:52:58;26.63;;;17.40;;
1507;SDS011;745;48.586;10.032;2023-03-03T16:57:45;25.70;;;16.83;;
1507;SDS011;745;48.586;10.032;2023-03-03T17:02:31;24.13;;;17.83;;
1507;SDS011;745;48.586;10.032;2023-03-03T17:21:55;28.30;;;18.60;;
1507;SDS011;745;48.586;10.032;2023-03-03T17:36:34;24.50;;;16.73;;
1507;SDS011;745;48.586;10.032;2023-03-03T17:46:07;31.23;;;19.67;;
1507;SDS011;745;48.586;10.032;2023-03-03T17:55:31;29.57;;;20.40;;
1507;SDS011;745;48.586;10.032;2023-03-03T18:05:10;26.73;;;19.20;;
1507;SDS011;745;48.586;10.032;2023-03-03T18:24:29;32.50;;;20.33;;
1507;SDS011;745;48.586;10.032;2023-03-03T18:33:43;32.10;;;20.53;;
1507;SDS011;745;48.586;10.032;2023-03-03T18:38:31;40.27;;;22.90;;
1507;SDS011;745;48.586;10.032;2023-03-03T18:48:17;32.90;;;20.53;;
1507;SDS011;745;48.586;10.032;2023-03-03T18:57:59;39.27;;;21.87;;
1507;SDS011;745;48.586;10.032;2023-03-03T19:02:50;37.60;;;22.60;;
1507;SDS011;745;48.586;10.032;2023-03-03T19:11:56;37.40;;;22.67;;
1507;SDS011;745;48.586;10.032;2023-03-03T19:16:28;37.60;;;22.43;;
1507;SDS011;745;48.586;10.032;2023-03-03T19:21:03;36.77;;;22.87;;
1507;SDS011;745;48.586;10.032;2023-03-03T19:25:36;47.33;;;26.77;;
1507;SDS011;745;48.586;10.032;2023-03-03T19:44:55;52.10;;;28.80;;
1507;SDS011;745;48.586;10.032;2023-03-03T19:59:22;42.40;;;24.60;;
1507;SDS011;745;48.586;10.032;2023-03-03T20:04:08;42.27;;;25.00;;
1507;SDS011;745;48.586;10.032;2023-03-03T20:09:03;41.40;;;23.83;;
1507;SDS011;745;48.586;10.032;2023-03-03T20:14:04;39.50;;;23.90;;
1507;SDS011;745;48.586;10.032;2023-03-03T20:38:28;36.47;;;22.00;;
1507;SDS011;745;48.586;10.032;2023-03-03T20:52:59;37.80;;;22.80;;
1507;SDS011;745;48.586;10.032;2023-03-03T20:58:09;39.13;;;22.70;;
1507;SDS011;745;48.586;10.032;2023-03-03T21:07:24;37.10;;;20.53;;
1507;SDS011;745;48.586;10.032;2023-03-03T21:11:55;39.43;;;21.73;;
1507;SDS011;745;48.586;10.032;2023-03-03T21:16:28;36.30;;;21.20;;
1507;SDS011;745;48.586;10.032;2023-03-03T21:21:01;37.17;;;21.77;;
1507;SDS011;745;48.586;10.032;2023-03-03T21:30:20;32.20;;;19.80;;
1507;SDS011;745;48.586;10.032;2023-03-03T21:35:02;36.70;;;19.77;;
1507;SDS011;745;48.586;10.032;2023-03-03T21:39:41;35.30;;;20.13;;
1507;SDS011;745;48.586;10.032;2023-03-03T21:44:31;33.20;;;20.30;;
1507;SDS011;745;48.586;10.032;2023-03-03T21:49:02;36.50;;;19.90;;
1507;SDS011;745;48.586;10.032;2023-03-03T21:53:32;30.27;;;18.93;;
1507;SDS011;745;48.586;10.032;2023-03-03T21:58:03;37.67;;;20.23;;
1507;SDS011;745;48.586;10.032;2023-03-03T22:02:34;35.53;;;20.73;;
1507;SDS011;745;48.586;10.032;2023-03-03T22:07:05;37.23;;;21.40;;
1507;SDS011;745;48.586;10.032;2023-03-03T22:11:35;40.00;;;22.30;;
1507;SDS011;745;48.586;10.032;2023-03-03T22:16:07;37.47;;;20.80;;
1507;SDS011;745;48.586;10.032;2023-03-03T22:20:37;32.03;;;19.63;;
1507;SDS011;745;48.586;10.032;2023-03-03T22:25:08;31.20;;;18.20;;
1507;SDS011;745;48.586;10.032;2023-03-03T22:29:39;31.90;;;17.37;;
1507;SDS011;745;48.586;10.032;2023-03-03T22:34:09;32.27;;;19.13;;
1507;SDS011;745;48.586;10.032;2023-03-03T22:38:39;32.30;;;18.47;;
1507;SDS011;745;48.586;10.032;2023-03-03T22:43:10;36.53;;;20.27;;
1507;SDS011;745;48.586;10.032;2023-03-03T22:47:43;35.77;;;21.37;;
1507;SDS011;745;48.586;10.032;2023-03-03T22:52:13;32.77;;;19.70;;
1507;SDS011;745;48.586;10.032;2023-03-03T22:56:44;37.47;;;21.50;;
1507;SDS011;745;48.586;10.032;2023-03-03T23:01:14;35.03;;;20.37;;
1507;SDS011;745;48.586;10.032;2023-03-03T23:05:45;37.30;;;20.30;;
1507;SDS011;745;48.586;10.032;2023-03-03T23:10:15;35.53;;;20.10;;
1507;SDS011;745;48.586;10.032;2023-03-03T23:14:46;37.30;;;21.50;;
1507;SDS011;745;48.586;10.032;2023-03-03T23:19:17;36.17;;;20.40;;
1507;SDS011;745;48.586;10.032;2023-03-03T23:23:47;31.70;;;17.47;;
1507;SDS011;745;48.586;10.032;2023-03-03T23:28:18;34.67;;;19.87;;
1507;SDS011;745;48.586;10.032;2023-03-03T23:32:48;29.60;;;17.50;;
1507;SDS011;745;48.586;10.032;2023-03-03T23:37:19;33.60;;;19.87;;
1507;SDS011;745;48.586;10.032;2023-03-03T23:41:50;34.00;;;19.50;;
1507;SDS011;745;48.586;10.032;2023-03-03T23:46:20;35.87;;;20.17;;
1507;SDS011;745;48.586;10.032;2023-03-03T23:50:51;45.27;;;22.47;;
1507;SDS011;745;48.586;10.032;2023-03-03T23:55:21;42.63;;;23.90;;
1507;SDS011;745;48.586;10.032;2023-03-03T23:59:51;44.37;;;23.70;;
